Time;durP1;ratioP1;P1;durP2;ratioP2;P2;SDS_P1;SDS_P2;PMS_P1;PMS_P2;Temp;Humidity;BMP_temperature;BMP_pressure;BME280_temperature;BME280_humidity;BME280_pressure;Samples;Min_cycle;Max_cycle;Signal;HPM_P1;HPM_P2
2022/03/07 00:01:49;;;;;;;1.00;0.90;;;-0.20;99.90;;;;;;4987548;28;20531;-86
2022/03/07 00:04:17;;;;;;;2.10;1.93;;;-0.30;99.90;;;;;;4989309;28;20550;-87
2022/03/07 00:06:43;;;;;;;1.20;1.10;;;-0.40;99.90;;;;;;4990128;28;20180;-86
2022/03/07 00:09:09;;;;;;;1.13;1.03;;;-0.30;99.90;;;;;;4987070;28;20456;-87
2022/03/07 00:11:35;;;;;;;1.20;1.10;;;-0.30;99.90;;;;;;4990761;28;20447;-87
2022/03/07 00:14:01;;;;;;;1.10;1.00;;;-0.20;99.90;;;;;;4988513;28;20231;-87
2022/03/07 00:16:27;;;;;;;1.00;0.90;;;-0.10;99.90;;;;;;5000710;28;20471;-86
2022/03/07 00:18:53;;;;;;;1.20;1.10;;;-0.30;99.90;;;;;;4991800;28;20460;-86
2022/03/07 00:21:20;;;;;;;1.30;1.20;;;-0.40;99.90;;;;;;4991930;28;20446;-86
2022/03/07 00:23:46;;;;;;;1.37;1.27;;;-0.40;99.90;;;;;;4989314;28;20731;-86
2022/03/07 00:26:12;;;;;;;1.10;1.00;;;-0.40;99.90;;;;;;4992559;28;20440;-87
2022/03/07 00:28:37;;;;;;;1.87;1.77;;;-0.40;99.90;;;;;;4985649;28;20451;-87
2022/03/07 00:31:05;;;;;;;2.90;1.87;;;-0.50;99.90;;;;;;4989777;28;20264;-87
2022/03/07 00:33:30;;;;;;;2.23;2.13;;;-0.50;99.90;;;;;;4987315;28;20316;-87
2022/03/07 00:35:56;;;;;;;4.13;3.30;;;-0.60;99.90;;;;;;4987894;28;20482;-87
2022/03/07 00:38:23;;;;;;;1.37;1.27;;;-0.60;99.90;;;;;;4992611;28;20205;-87
2022/03/07 00:40:48;;;;;;;1.30;1.20;;;-0.60;99.90;;;;;;4992445;28;20539;-86
2022/03/07 00:43:14;;;;;;;1.00;0.90;;;-0.60;99.90;;;;;;4987325;28;20516;-87
2022/03/07 00:45:40;;;;;;;1.67;1.57;;;-0.60;99.90;;;;;;4993006;28;20189;-87
2022/03/07 00:48:05;;;;;;;5.07;3.73;;;-0.70;99.90;;;;;;4990856;28;20185;-87
2022/03/07 00:50:31;;;;;;;3.27;1.70;;;-0.70;99.90;;;;;;4991732;28;20295;-87
2022/03/07 00:52:57;;;;;;;1.83;1.43;;;-0.70;99.90;;;;;;4978472;28;20189;-86
2022/03/07 00:55:29;;;;;;;1.40;1.30;;;-0.60;99.90;;;;;;4986831;28;20976;-86
2022/03/07 00:57:57;;;;;;;1.50;1.40;;;-0.70;99.90;;;;;;4992370;28;20671;-86
2022/03/07 01:00:23;;;;;;;1.93;1.83;;;-0.70;99.90;;;;;;4992277;28;20448;-87
2022/03/07 01:02:48;;;;;;;2.20;2.10;;;-0.70;99.90;;;;;;4991944;28;20536;-87
2022/03/07 01:05:17;;;;;;;1.37;1.27;;;-0.80;99.90;;;;;;4990288;28;20671;-87
2022/03/07 01:07:42;;;;;;;1.10;1.00;;;-0.70;99.90;;;;;;4992694;28;20192;-87
2022/03/07 01:10:11;;;;;;;1.30;1.20;;;-0.80;99.90;;;;;;4990642;28;20444;-87
2022/03/07 01:15:40;;;;;;;1.10;1.00;;;-0.80;99.90;;;;;;4984145;28;20550;-87
2022/03/07 01:18:13;;;;;;;1.30;1.20;;;-0.80;99.90;;;;;;4991203;28;20527;-87
2022/03/07 01:24:48;;;;;;;6.10;2.10;;;-0.80;99.90;;;;;;4924774;29;20556;-87
2022/03/07 01:27:37;;;;;;;1.60;1.50;;;-0.90;99.90;;;;;;4931718;29;21023;-86
2022/03/07 01:38:01;;;;;;;1.20;1.10;;;-0.90;99.90;;;;;;4876122;29;20456;-87
2022/03/07 01:40:32;;;;;;;1.10;1.00;;;-0.90;99.90;;;;;;4885069;29;20997;-87
2022/03/07 01:42:58;;;;;;;2.00;1.87;;;-0.90;99.90;;;;;;4880838;28;20437;-86
2022/03/07 01:45:58;;;;;;;1.10;1.00;;;-0.80;99.90;;;;;;4990319;28;20975;-87
2022/03/07 01:51:47;;;;;;;1.70;1.60;;;-0.90;99.90;;;;;;4934055;29;20447;-87
2022/03/07 01:54:17;;;;;;;1.50;1.40;;;-0.80;99.90;;;;;;4979388;28;20549;-87
2022/03/07 01:57:01;;;;;;;1.10;1.00;;;-0.80;99.90;;;;;;4981865;28;20441;-87
2022/03/07 02:00:04;;;;;;;1.20;1.10;;;-0.90;99.90;;;;;;4965394;28;20497;-87
2022/03/07 02:02:57;;;;;;;2.57;2.40;;;-0.90;99.90;;;;;;4929939;29;20883;-87
2022/03/07 02:05:33;;;;;;;1.10;1.00;;;-0.90;99.90;;;;;;4945934;28;20982;-87
2022/03/07 02:07:59;;;;;;;1.10;1.00;;;-1.00;99.90;;;;;;4986746;28;20445;-87
2022/03/07 02:14:35;;;;;;;1.47;1.37;;;-1.00;99.90;;;;;;4990193;28;20699;-87
2022/03/07 02:17:24;;;;;;;1.20;1.10;;;-1.10;99.90;;;;;;4982019;28;20466;-86
2022/03/07 02:20:08;;;;;;;1.83;1.73;;;-1.10;99.90;;;;;;4985649;28;20440;-87
2022/03/07 02:23:11;;;;;;;1.30;1.20;;;-1.00;99.90;;;;;;4909947;29;20448;-86
2022/03/07 02:26:10;;;;;;;;;;;;;;;;;;;;;
2022/03/07 02:28:41;;;;;;;1.10;1.00;;;-1.10;99.90;;;;;;4911181;29;20521;-87
2022/03/07 02:31:40;;;;;;;;;;;;;;;;;;;;;
2022/03/07 02:34:10;;;;;;;1.50;1.40;;;-1.20;99.90;;;;;;4958124;28;20838;-87
2022/03/07 02:37:03;;;;;;;1.20;1.10;;;-1.30;99.90;;;;;;4990911;28;20956;-87
2022/03/07 02:39:40;;;;;;;1.10;1.00;;;-1.30;99.90;;;;;;4983992;28;20448;-87
2022/03/07 02:42:18;;;;;;;1.20;1.10;;;-1.30;99.90;;;;;;4964634;28;20530;-87
2022/03/07 02:45:08;;;;;;;1.40;1.30;;;-1.30;99.90;;;;;;4990629;28;20455;-87
2022/03/07 02:47:37;;;;;;;3.50;3.27;;;-1.30;99.90;;;;;;4983829;28;20440;-87
2022/03/07 02:50:22;;;;;;;;;;;;;;;;;;;;;
2022/03/07 02:52:48;;;;;;;3.10;2.90;;;-1.40;99.90;;;;;;4982672;28;20459;-87
2022/03/07 02:58:50;;;;;;;2.10;2.00;;;-1.40;99.90;;;;;;4911155;28;20207;-87
2022/03/07 03:05:16;;;;;;;1.20;1.10;;;-1.40;99.90;;;;;;4978389;28;20495;-87
2022/03/07 03:08:08;;;;;;;1.20;1.10;;;-1.50;99.90;;;;;;4976976;28;20456;-87
2022/03/07 03:10:34;;;;;;;1.13;1.03;;;-1.60;99.90;;;;;;4988787;28;20431;-87
2022/03/07 03:13:05;;;;;;;1.40;1.30;;;-1.50;99.90;;;;;;4987686;28;21065;-88
2022/03/07 03:15:31;;;;;;;1.60;1.50;;;-1.60;99.90;;;;;;4975067;28;20447;-86
2022/03/07 03:18:24;;;;;;;1.53;1.43;;;-1.60;99.90;;;;;;4991371;28;20436;-86
2022/03/07 03:24:09;;;;;;;1.50;1.40;;;-1.60;99.90;;;;;;4949971;28;20452;-87
2022/03/07 03:27:12;;;;;;;1.93;1.83;;;-1.60;99.90;;;;;;4987030;28;20449;-86
2022/03/07 03:30:12;;;;;;;1.27;1.17;;;-1.60;99.90;;;;;;4965707;28;20490;-87
2022/03/07 03:32:38;;;;;;;1.10;1.00;;;-1.60;99.90;;;;;;4983690;28;20429;-87
2022/03/07 03:35:29;;;;;;;;;;;;;;;;;;;;;
2022/03/07 03:38:17;;;;;;;1.10;1.00;;;-1.60;99.90;;;;;;4989475;28;20546;-87
2022/03/07 03:40:43;;;;;;;1.20;1.10;;;-1.70;99.90;;;;;;4978396;28;20452;-87
2022/03/07 03:43:08;;;;;;;1.60;1.50;;;-1.70;99.90;;;;;;4988867;28;20916;-87
2022/03/07 03:45:34;;;;;;;1.93;1.57;;;-1.60;99.90;;;;;;4973378;28;20188;-87
2022/03/07 03:48:10;;;;;;;1.20;1.10;;;-1.60;99.90;;;;;;4990075;28;20181;-87
2022/03/07 03:51:01;;;;;;;;;;;;;;;;;;;;;
2022/03/07 03:53:27;;;;;;;1.70;1.60;;;-1.60;99.90;;;;;;4987581;28;20468;-86
2022/03/07 03:56:02;;;;;;;1.07;1.00;;;-1.60;99.90;;;;;;4981622;28;21035;-87
2022/03/07 03:58:50;;;;;;;1.50;1.40;;;-1.80;99.90;;;;;;4987700;28;20448;-88
2022/03/07 04:01:16;;;;;;;1.60;1.50;;;-1.70;99.90;;;;;;4987561;28;20479;-87
2022/03/07 04:03:41;;;;;;;1.30;1.20;;;-1.70;99.90;;;;;;4967495;28;21147;-88
2022/03/07 04:06:08;;;;;;;1.30;1.20;;;-1.70;99.90;;;;;;4988973;28;20185;-88
2022/03/07 04:08:40;;;;;;;1.47;1.37;;;-1.80;99.90;;;;;;4970204;28;20180;-87
2022/03/07 04:11:11;;;;;;;1.17;1.07;;;-1.80;99.90;;;;;;4974519;28;20436;-87
2022/03/07 04:13:37;;;;;;;1.10;1.00;;;-1.80;99.90;;;;;;4991134;28;20464;-87
2022/03/07 04:16:03;;;;;;;1.47;1.37;;;-1.80;99.90;;;;;;4980712;28;20813;-87
2022/03/07 04:18:28;;;;;;;1.30;1.20;;;-1.80;99.90;;;;;;4985692;28;20190;-87
2022/03/07 04:20:54;;;;;;;2.40;2.30;;;-1.80;99.90;;;;;;4970867;28;20456;-87
2022/03/07 04:23:20;;;;;;;1.17;1.07;;;-1.80;99.90;;;;;;4979479;28;20185;-88
2022/03/07 04:25:48;;;;;;;1.20;1.10;;;-1.80;99.90;;;;;;4988484;28;20192;-88
2022/03/07 04:28:13;;;;;;;1.20;1.10;;;-1.80;99.90;;;;;;4989040;28;20444;-87
2022/03/07 04:30:40;;;;;;;2.90;1.83;;;-1.80;99.90;;;;;;4986108;28;20474;-88
2022/03/07 04:33:05;;;;;;;1.20;1.10;;;-1.80;99.90;;;;;;4971285;28;20451;-87
2022/03/07 04:35:31;;;;;;;1.63;1.53;;;-1.80;99.90;;;;;;4985364;28;20447;-87
2022/03/07 04:37:56;;;;;;;1.20;1.10;;;-1.80;99.90;;;;;;4997372;28;20189;-88
2022/03/07 04:40:22;;;;;;;1.20;1.10;;;-1.90;99.90;;;;;;4987148;28;20566;-87
2022/03/07 04:42:48;;;;;;;1.33;1.23;;;-1.90;99.90;;;;;;4989095;28;20272;-87
2022/03/07 04:45:14;;;;;;;1.13;1.03;;;-1.90;99.90;;;;;;4979817;28;20186;-87
2022/03/07 04:47:40;;;;;;;1.33;1.23;;;-1.90;99.90;;;;;;4980191;28;20199;-87
2022/03/07 04:50:07;;;;;;;1.40;1.30;;;-2.00;99.90;;;;;;4984434;28;20885;-87
2022/03/07 04:52:34;;;;;;;1.30;1.20;;;-2.00;99.90;;;;;;4988913;28;20806;-87
2022/03/07 04:54:59;;;;;;;1.30;1.20;;;-1.90;99.90;;;;;;4982348;28;20606;-87
2022/03/07 04:57:25;;;;;;;1.40;1.30;;;-1.80;99.90;;;;;;4988640;28;21053;-87
2022/03/07 04:59:51;;;;;;;2.07;1.97;;;-1.70;99.90;;;;;;4986723;28;20211;-87
2022/03/07 05:02:17;;;;;;;1.87;1.77;;;-1.80;99.90;;;;;;5004012;28;20192;-87
2022/03/07 05:04:45;;;;;;;1.43;1.33;;;-1.80;99.90;;;;;;4984400;28;20558;-88
2022/03/07 05:07:10;;;;;;;1.40;1.30;;;-1.80;99.90;;;;;;4973110;28;20989;-87
2022/03/07 05:09:36;;;;;;;1.20;1.10;;;-1.90;99.90;;;;;;4976996;28;20975;-88
2022/03/07 05:12:02;;;;;;;1.30;1.20;;;-2.00;99.90;;;;;;4973733;28;20272;-87
2022/03/07 05:14:28;;;;;;;1.00;0.90;;;-2.00;99.90;;;;;;4952314;28;20225;-88
2022/03/07 05:16:53;;;;;;;1.30;1.20;;;-2.00;99.90;;;;;;4969276;28;20448;-87
2022/03/07 05:19:19;;;;;;;1.20;1.10;;;-2.00;99.90;;;;;;4975932;28;22001;-87
2022/03/07 05:21:45;;;;;;;1.87;1.77;;;-2.00;99.90;;;;;;4975699;28;20193;-87
2022/03/07 05:24:11;;;;;;;1.20;1.10;;;-1.90;99.90;;;;;;4970861;28;20213;-87
2022/03/07 05:26:37;;;;;;;1.83;1.73;;;-2.00;99.90;;;;;;4975889;28;20883;-88
2022/03/07 05:29:03;;;;;;;1.10;1.00;;;-2.00;99.90;;;;;;4971063;28;20194;-87
2022/03/07 05:31:29;;;;;;;1.20;1.10;;;-2.10;99.90;;;;;;4955592;28;20452;-87
2022/03/07 05:33:57;;;;;;;1.37;1.27;;;-2.10;99.90;;;;;;4972660;28;20985;-88
2022/03/07 05:36:22;;;;;;;1.20;1.10;;;-2.10;99.90;;;;;;4971845;28;20479;-89
2022/03/07 05:38:48;;;;;;;1.60;1.50;;;-2.10;99.90;;;;;;4970859;28;20487;-88
2022/03/07 05:41:14;;;;;;;2.53;2.43;;;-2.10;99.90;;;;;;4973466;28;20631;-88
2022/03/07 05:43:39;;;;;;;1.83;1.73;;;-2.10;99.90;;;;;;4969958;28;20219;-88
2022/03/07 05:46:06;;;;;;;1.40;1.30;;;-2.00;99.90;;;;;;4970584;28;20511;-88
2022/03/07 05:48:32;;;;;;;1.47;1.37;;;-1.90;99.90;;;;;;4967402;28;20193;-88
2022/03/07 05:51:01;;;;;;;1.40;1.30;;;-1.90;99.90;;;;;;4973564;28;20491;-88
2022/03/07 05:53:27;;;;;;;1.40;1.30;;;-1.90;99.90;;;;;;4980067;28;20217;-89
2022/03/07 05:55:52;;;;;;;1.40;1.30;;;-1.90;99.90;;;;;;4980689;28;20832;-88
2022/03/07 05:58:19;;;;;;;1.10;1.00;;;-2.00;99.90;;;;;;4983826;28;20229;-88
2022/03/07 06:00:45;;;;;;;2.17;2.07;;;-2.10;99.90;;;;;;4972942;28;20737;-88
2022/03/07 06:03:11;;;;;;;1.20;1.10;;;-2.00;99.90;;;;;;4976790;28;20465;-89
2022/03/07 06:05:43;;;;;;;1.50;1.40;;;-1.90;99.90;;;;;;4962131;28;20194;-88
2022/03/07 06:08:09;;;;;;;1.53;1.43;;;-1.90;99.90;;;;;;4972885;28;20458;-88
2022/03/07 06:10:35;;;;;;;1.20;1.10;;;-1.90;99.90;;;;;;4977975;28;20464;-88
2022/03/07 06:13:01;;;;;;;3.80;3.50;;;-2.00;99.90;;;;;;4976998;28;20245;-89
2022/03/07 06:15:27;;;;;;;4.40;4.07;;;-2.00;99.90;;;;;;4972500;28;20905;-89
2022/03/07 06:17:58;;;;;;;4.50;4.20;;;-2.00;99.90;;;;;;4988085;28;20464;-89
2022/03/07 06:20:27;;;;;;;1.10;1.00;;;-2.10;99.90;;;;;;4962342;28;20642;-89
2022/03/07 06:22:53;;;;;;;1.53;1.43;;;-2.00;99.90;;;;;;4972993;28;20471;-89
2022/03/07 06:25:19;;;;;;;1.27;1.17;;;-2.00;99.90;;;;;;4978725;28;20437;-89
2022/03/07 06:27:45;;;;;;;1.80;1.70;;;-1.90;99.90;;;;;;4975216;28;20450;-90
2022/03/07 06:30:11;;;;;;;1.50;1.40;;;-1.90;99.90;;;;;;4980761;28;20201;-88
2022/03/07 06:32:37;;;;;;;1.10;1.00;;;-1.80;99.90;;;;;;4957788;28;20329;-89
2022/03/07 06:35:04;;;;;;;1.30;1.20;;;-1.80;99.90;;;;;;4960050;28;20583;-88
2022/03/07 06:37:30;;;;;;;1.93;1.83;;;-1.70;99.90;;;;;;4970711;28;20972;-87
2022/03/07 06:40:04;;;;;;;1.57;1.47;;;-1.60;99.90;;;;;;4972242;28;20484;-88
2022/03/07 06:42:29;;;;;;;1.20;1.10;;;-1.70;99.90;;;;;;4958101;28;20186;-88
2022/03/07 06:44:55;;;;;;;2.10;2.00;;;-1.60;99.90;;;;;;4970940;28;20511;-88
2022/03/07 06:47:36;;;;;;;;;;;;;;;;;;;;;
2022/03/07 06:50:03;;;;;;;1.30;1.20;;;-1.50;99.90;;;;;;4962369;28;20368;-90
2022/03/07 06:52:34;;;;;;;1.20;1.10;;;-1.50;99.90;;;;;;4972681;28;20933;-89
2022/03/07 06:55:32;;;;;;;1.50;1.40;;;-1.50;99.90;;;;;;4973152;28;20746;-89
2022/03/07 06:57:58;;;;;;;1.50;1.40;;;-1.40;99.90;;;;;;4968732;28;20436;-88
2022/03/07 07:00:24;;;;;;;1.10;1.00;;;-1.40;99.90;;;;;;4950678;28;20589;-89
2022/03/07 07:03:11;;;;;;;1.10;1.00;;;-1.30;99.90;;;;;;4952790;28;20528;-87
2022/03/07 07:05:36;;;;;;;1.40;1.30;;;-1.10;99.90;;;;;;4987667;28;20217;-87
2022/03/07 07:08:02;;;;;;;1.40;1.30;;;-0.90;99.90;;;;;;4988294;28;20436;-88
2022/03/07 07:10:28;;;;;;;1.10;1.00;;;-0.70;99.90;;;;;;4971074;28;20566;-87
2022/03/07 07:12:53;;;;;;;1.60;1.50;;;-0.60;99.90;;;;;;4985354;28;20910;-88
2022/03/07 07:15:19;;;;;;;3.73;1.63;;;-0.60;99.90;;;;;;4974768;28;20307;-88
2022/03/07 07:17:45;;;;;;;2.10;2.00;;;-0.50;99.90;;;;;;4992015;28;20212;-87
2022/03/07 07:20:11;;;;;;;1.00;0.90;;;-0.30;99.90;;;;;;4989809;28;20205;-87
2022/03/07 07:22:38;;;;;;;1.37;1.27;;;-0.10;99.90;;;;;;4988464;28;20976;-87
2022/03/07 07:25:05;;;;;;;1.20;1.10;;;-0.10;99.90;;;;;;4987465;28;20979;-86
2022/03/07 07:27:30;;;;;;;2.47;2.37;;;0.00;99.90;;;;;;4979444;28;20801;-86
2022/03/07 07:29:56;;;;;;;1.20;1.10;;;0.20;99.90;;;;;;4990300;28;20516;-85
2022/03/07 07:32:22;;;;;;;1.10;1.00;;;0.30;99.90;;;;;;4989939;28;20603;-86
2022/03/07 07:34:48;;;;;;;1.10;1.00;;;0.50;99.90;;;;;;4990970;28;20988;-85
2022/03/07 07:37:14;;;;;;;2.30;2.10;;;0.60;99.90;;;;;;4990150;28;20189;-85
2022/03/07 07:39:39;;;;;;;1.10;1.00;;;0.90;99.90;;;;;;4988501;28;20888;-87
2022/03/07 07:42:05;;;;;;;1.20;1.10;;;1.00;99.90;;;;;;4974345;28;20205;-86
2022/03/07 07:44:31;;;;;;;2.27;2.17;;;1.20;99.90;;;;;;4975866;28;20200;-85
2022/03/07 07:46:56;;;;;;;1.47;1.37;;;1.30;99.90;;;;;;4989382;28;20557;-85
2022/03/07 07:49:24;;;;;;;1.60;1.50;;;1.50;99.90;;;;;;4967504;28;20189;-85
2022/03/07 07:51:54;;;;;;;1.10;1.00;;;1.70;99.90;;;;;;4981964;28;20186;-85
2022/03/07 07:54:19;;;;;;;1.20;1.10;;;1.80;99.90;;;;;;4983422;28;20491;-86
2022/03/07 07:56:45;;;;;;;0.93;0.83;;;1.90;99.90;;;;;;4989367;28;20448;-87
2022/03/07 07:59:11;;;;;;;1.00;0.90;;;2.10;99.90;;;;;;4968964;28;20197;-85
2022/03/07 08:01:37;;;;;;;0.90;0.80;;;2.30;99.90;;;;;;4966728;28;20846;-86
2022/03/07 08:04:03;;;;;;;1.77;1.43;;;2.50;99.90;;;;;;4977407;28;20489;-86
2022/03/07 08:06:28;;;;;;;1.20;1.10;;;2.60;99.90;;;;;;4976944;28;20285;-85
2022/03/07 08:08:54;;;;;;;0.90;0.80;;;2.90;99.90;;;;;;4969010;28;20460;-86
2022/03/07 08:11:19;;;;;;;0.93;0.83;;;3.10;99.90;;;;;;4954749;28;20233;-85
2022/03/07 08:13:45;;;;;;;1.50;1.30;;;3.10;99.90;;;;;;4948896;28;20292;-85
2022/03/07 08:16:10;;;;;;;0.90;0.80;;;3.30;99.90;;;;;;4946951;28;20229;-86
2022/03/07 08:18:36;;;;;;;0.90;0.70;;;3.30;99.90;;;;;;4967644;28;20302;-86
2022/03/07 08:21:02;;;;;;;0.97;0.87;;;3.20;99.90;;;;;;4970600;28;20198;-86
2022/03/07 08:23:28;;;;;;;0.90;0.80;;;3.20;99.90;;;;;;4954208;28;20882;-86
2022/03/07 08:25:54;;;;;;;1.70;1.60;;;3.30;99.90;;;;;;4972515;28;20537;-86
2022/03/07 08:28:20;;;;;;;1.17;1.07;;;3.50;99.90;;;;;;4974080;28;20449;-86
2022/03/07 08:30:45;;;;;;;1.60;1.50;;;3.70;99.90;;;;;;4981599;28;20657;-87
2022/03/07 08:33:11;;;;;;;0.90;0.80;;;4.00;99.90;;;;;;4963858;28;20217;-87
2022/03/07 08:35:37;;;;;;;0.90;0.80;;;3.90;99.90;;;;;;4973428;28;20249;-87
2022/03/07 08:38:02;;;;;;;0.90;0.80;;;4.10;99.90;;;;;;4978055;28;20557;-86
2022/03/07 08:40:28;;;;;;;1.00;0.90;;;4.20;99.90;;;;;;4973648;28;20237;-87
2022/03/07 08:42:54;;;;;;;0.80;0.60;;;4.20;99.90;;;;;;4953338;28;20642;-87
2022/03/07 08:45:27;;;;;;;1.20;1.10;;;4.30;99.90;;;;;;4948979;28;20669;-87
2022/03/07 08:47:53;;;;;;;1.03;0.93;;;4.60;99.90;;;;;;4973125;28;20442;-86
2022/03/07 08:50:19;;;;;;;1.33;1.23;;;4.80;99.90;;;;;;4967783;28;20425;-86
2022/03/07 08:52:46;;;;;;;0.80;0.70;;;5.00;99.90;;;;;;4970549;28;20186;-86
2022/03/07 08:55:11;;;;;;;1.53;1.37;;;5.00;99.90;;;;;;4956680;28;20726;-86
2022/03/07 08:57:37;;;;;;;0.90;0.73;;;5.20;99.90;;;;;;4973700;28;20520;-86
2022/03/07 09:00:09;;;;;;;0.80;0.70;;;5.30;99.90;;;;;;4973044;28;20622;-86
2022/03/07 09:02:35;;;;;;;1.27;1.17;;;5.40;99.90;;;;;;4971675;28;20980;-85
2022/03/07 09:05:00;;;;;;;0.80;0.80;;;5.60;99.90;;;;;;4984164;28;20989;-87
2022/03/07 09:07:28;;;;;;;1.30;1.20;;;5.70;99.90;;;;;;4990189;28;20177;-87
2022/03/07 09:09:57;;;;;;;1.10;1.00;;;5.60;99.90;;;;;;4993572;28;20217;-87
2022/03/07 09:12:27;;;;;;;1.10;1.00;;;6.00;99.90;;;;;;4975841;28;20532;-87
2022/03/07 09:14:59;;;;;;;0.90;0.77;;;6.10;99.90;;;;;;4973819;28;20922;-87
2022/03/07 09:17:25;;;;;;;1.10;1.00;;;5.80;99.90;;;;;;4987932;28;20534;-87
2022/03/07 09:19:51;;;;;;;0.87;0.70;;;6.30;99.90;;;;;;4999899;28;20464;-87
2022/03/07 09:22:17;;;;;;;1.10;0.97;;;6.40;99.90;;;;;;4992059;28;20984;-87
2022/03/07 09:24:43;;;;;;;0.80;0.70;;;6.30;99.90;;;;;;4993068;28;20464;-87
2022/03/07 09:27:08;;;;;;;0.90;0.63;;;6.60;99.90;;;;;;4986902;28;20475;-88
2022/03/07 09:29:34;;;;;;;0.90;0.70;;;6.90;99.90;;;;;;4989497;28;20278;-87
2022/03/07 09:32:00;;;;;;;1.47;0.87;;;7.00;99.90;;;;;;4990348;28;20235;-87
2022/03/07 09:34:25;;;;;;;1.67;1.57;;;7.50;99.90;;;;;;4988722;28;20229;-89
2022/03/07 09:36:51;;;;;;;1.20;0.70;;;8.00;99.90;;;;;;4989762;28;20830;-88
2022/03/07 09:39:17;;;;;;;0.90;0.60;;;8.20;99.90;;;;;;4974472;28;20276;-88
2022/03/07 09:41:42;;;;;;;1.43;1.33;;;7.90;99.90;;;;;;4993539;28;20200;-87
2022/03/07 09:44:08;;;;;;;1.17;0.93;;;8.10;99.90;;;;;;4983142;28;20228;-87
2022/03/07 09:46:35;;;;;;;1.13;1.00;;;8.10;99.90;;;;;;4993303;28;20188;-87
2022/03/07 09:49:00;;;;;;;0.90;0.70;;;8.60;99.90;;;;;;4991840;28;20459;-87
2022/03/07 09:51:26;;;;;;;0.90;0.70;;;8.80;99.90;;;;;;4991331;28;20448;-88
2022/03/07 09:53:51;;;;;;;0.90;0.80;;;8.60;99.90;;;;;;4971395;28;20217;-87
2022/03/07 09:56:17;;;;;;;0.90;0.70;;;8.70;99.90;;;;;;4991967;28;20334;-87
2022/03/07 09:58:42;;;;;;;1.67;0.90;;;9.10;99.90;;;;;;4988572;28;20280;-84
2022/03/07 10:01:13;;;;;;;1.07;0.97;;;9.60;99.90;;;;;;4970409;28;20193;-84
2022/03/07 10:03:39;;;;;;;0.90;0.67;;;9.90;99.90;;;;;;4984976;28;20628;-84
2022/03/07 10:06:16;;;;;;;0.90;0.67;;;9.80;99.90;;;;;;4977858;28;21024;-87
2022/03/07 10:08:58;;;;;;;0.90;0.50;;;9.50;99.90;;;;;;4990318;28;20452;-87
2022/03/07 10:11:24;;;;;;;1.70;0.80;;;9.70;99.90;;;;;;4972461;28;20444;-88
2022/03/07 10:14:01;;;;;;;1.00;0.70;;;10.20;99.90;;;;;;4996713;28;20496;-86
2022/03/07 10:16:42;;;;;;;1.13;1.03;;;10.70;99.90;;;;;;4982190;28;20447;-86
2022/03/07 10:19:13;;;;;;;0.90;0.60;;;11.00;99.90;;;;;;4985742;28;20491;-87
2022/03/07 10:21:50;;;;;;;1.23;0.70;;;11.10;99.90;;;;;;4991823;28;20998;-86
2022/03/07 10:24:16;;;;;;;1.10;0.83;;;11.00;99.90;;;;;;4988254;28;20963;-86
2022/03/07 10:26:42;;;;;;;1.17;0.80;;;10.90;99.90;;;;;;4974658;28;20428;-87
2022/03/07 10:29:08;;;;;;;0.90;0.67;;;11.50;99.90;;;;;;4992068;28;20440;-87
2022/03/07 10:31:35;;;;;;;0.90;0.60;;;11.80;99.90;;;;;;4973745;28;20494;-87
2022/03/07 10:34:04;;;;;;;0.93;0.63;;;11.90;99.90;;;;;;4974132;28;20572;-87
2022/03/07 10:36:36;;;;;;;1.13;0.60;;;11.70;99.90;;;;;;4988765;28;20436;-89
2022/03/07 10:39:05;;;;;;;0.90;0.50;;;12.10;99.90;;;;;;4989442;28;20965;-87
2022/03/07 10:41:46;;;;;;;1.20;0.73;;;12.20;99.90;;;;;;4982614;28;20501;-87
2022/03/07 10:44:37;;;;;;;1.00;0.60;;;11.70;99.90;;;;;;4981017;28;20464;-86
2022/03/07 10:47:06;;;;;;;0.90;0.60;;;11.10;99.90;;;;;;4990976;28;20482;-87
2022/03/07 10:49:33;;;;;;;1.00;0.70;;;11.90;99.90;;;;;;4989882;28;20440;-86
2022/03/07 10:52:01;;;;;;;1.40;1.00;;;12.30;99.90;;;;;;4991635;28;20901;-87
2022/03/07 10:54:27;;;;;;;0.90;0.50;;;12.40;99.90;;;;;;4988610;28;20492;-87
2022/03/07 10:56:54;;;;;;;1.27;0.60;;;11.60;99.90;;;;;;4990193;28;20527;-86
2022/03/07 10:59:31;;;;;;;0.90;0.60;;;11.40;99.90;;;;;;4990561;28;20564;-86
2022/03/07 11:02:03;;;;;;;0.90;0.50;;;11.10;99.90;;;;;;4973138;28;20515;-86
2022/03/07 11:04:29;;;;;;;0.87;0.50;;;12.00;99.90;;;;;;4989960;28;20471;-87
2022/03/07 11:06:55;;;;;;;0.83;0.50;;;12.50;99.90;;;;;;4986841;28;20519;-87
2022/03/07 11:09:21;;;;;;;0.90;0.50;;;12.60;99.90;;;;;;4985273;28;20531;-87
2022/03/07 11:11:49;;;;;;;1.00;0.60;;;13.00;99.90;;;;;;4983127;28;20199;-87
2022/03/07 11:14:15;;;;;;;1.23;0.60;;;13.20;99.90;;;;;;4970923;28;20484;-86
2022/03/07 11:16:43;;;;;;;0.90;0.50;;;13.40;99.90;;;;;;4989968;28;20551;-86
2022/03/07 11:19:10;;;;;;;0.90;0.50;;;13.70;99.90;;;;;;4990644;28;20452;-86
2022/03/07 11:21:39;;;;;;;0.90;0.50;;;13.80;99.90;;;;;;4989889;28;20452;-86
2022/03/07 11:24:05;;;;;;;0.90;0.40;;;13.80;99.90;;;;;;4988119;28;20556;-87
2022/03/07 11:26:31;;;;;;;2.37;0.90;;;13.80;97.80;;;;;;4986063;28;20444;-88
2022/03/07 11:28:57;;;;;;;0.90;0.40;;;14.00;98.10;;;;;;4989779;28;20451;-90
2022/03/07 11:31:28;;;;;;;1.40;0.60;;;14.00;94.30;;;;;;4989546;28;20220;-90
2022/03/07 11:33:55;;;;;;;0.80;0.50;;;14.50;96.40;;;;;;4991140;28;20502;-90
2022/03/07 11:36:23;;;;;;;0.80;0.40;;;13.90;92.70;;;;;;4987821;28;20484;-90
2022/03/07 11:38:56;;;;;;;0.90;0.50;;;14.30;94.50;;;;;;4983552;28;20498;-90
2022/03/07 11:41:33;;;;;;;0.90;0.60;;;14.60;95.30;;;;;;4965040;28;20463;-91
2022/03/07 11:44:02;;;;;;;0.80;0.40;;;14.30;90.40;;;;;;4981478;28;20970;-91
2022/03/07 11:46:36;;;;;;;0.80;0.40;;;15.00;93.30;;;;;;4989242;28;20432;-91
2022/03/07 11:49:07;;;;;;;0.80;0.40;;;15.90;93.50;;;;;;4976257;28;20440;-89
2022/03/07 11:51:37;;;;;;;1.00;0.70;;;16.20;91.70;;;;;;4983879;28;20447;-88
2022/03/07 11:54:04;;;;;;;0.80;0.60;;;14.80;82.50;;;;;;4981255;28;20456;-87
2022/03/07 11:56:37;;;;;;;0.80;0.40;;;14.20;86.00;;;;;;4968304;28;20587;-90
2022/03/07 11:59:11;;;;;;;0.80;0.40;;;14.70;83.90;;;;;;4983592;28;20486;-91
2022/03/07 12:01:37;;;;;;;0.80;0.40;;;15.10;79.50;;;;;;4987958;28;20518;-91
2022/03/07 12:04:16;;;;;;;0.80;0.40;;;15.40;78.50;;;;;;4989181;28;20495;-89
2022/03/07 12:06:47;;;;;;;0.80;0.40;;;15.90;82.00;;;;;;4985035;28;20443;-89
2022/03/07 12:09:33;;;;;;;0.80;0.50;;;15.00;73.00;;;;;;4978841;28;20453;-90
2022/03/07 12:12:01;;;;;;;0.80;0.40;;;14.70;76.60;;;;;;4990769;28;20506;-89
2022/03/07 12:14:32;;;;;;;0.80;0.40;;;15.10;78.40;;;;;;4995330;28;21043;-88
2022/03/07 12:17:01;;;;;;;1.23;0.63;;;15.20;78.50;;;;;;4991192;28;20507;-87
2022/03/07 12:19:29;;;;;;;0.80;0.40;;;16.20;83.10;;;;;;4989464;28;20964;-89
2022/03/07 12:21:55;;;;;;;0.90;0.60;;;16.70;76.10;;;;;;4992179;28;20439;-89
2022/03/07 12:24:22;;;;;;;0.80;0.40;;;15.90;77.70;;;;;;4994630;28;20442;-91
2022/03/07 12:26:55;;;;;;;0.80;0.50;;;16.90;71.10;;;;;;4995204;28;20181;-90
2022/03/07 12:29:23;;;;;;;0.80;0.40;;;16.40;69.90;;;;;;4992746;28;20443;-90
2022/03/07 12:31:53;;;;;;;0.80;0.40;;;15.70;74.30;;;;;;4993589;28;20440;-88
2022/03/07 12:34:20;;;;;;;0.90;0.50;;;15.80;81.90;;;;;;4988140;28;20978;-88
2022/03/07 12:36:54;;;;;;;1.47;0.70;;;16.50;73.60;;;;;;4997721;28;20447;-88
2022/03/07 12:39:20;;;;;;;1.10;0.70;;;16.70;70.50;;;;;;4991686;28;20521;-89
2022/03/07 12:41:45;;;;;;;0.80;0.40;;;16.20;75.00;;;;;;4993272;28;20530;-88
2022/03/07 12:44:11;;;;;;;1.10;0.50;;;17.00;73.10;;;;;;4976797;28;20185;-89
2022/03/07 12:46:36;;;;;;;0.90;0.60;;;17.00;74.10;;;;;;4987529;28;20186;-89
2022/03/07 12:49:02;;;;;;;0.80;0.40;;;17.50;72.10;;;;;;4992908;28;20721;-88
2022/03/07 12:51:30;;;;;;;0.80;0.40;;;17.50;74.20;;;;;;4988847;28;20623;-88
2022/03/07 12:53:58;;;;;;;0.80;0.40;;;17.00;74.60;;;;;;4979441;28;20241;-88
2022/03/07 12:56:38;;;;;;;0.80;0.40;;;16.40;69.10;;;;;;4987496;28;21018;-88
2022/03/07 12:59:05;;;;;;;1.20;0.50;;;18.00;68.50;;;;;;4976090;28;20447;-88
2022/03/07 13:01:31;;;;;;;0.80;0.40;;;16.90;69.10;;;;;;4981494;28;20460;-87
2022/03/07 13:03:59;;;;;;;1.00;0.70;;;16.70;73.30;;;;;;4988455;28;20561;-86
2022/03/07 13:06:27;;;;;;;0.80;0.50;;;17.40;69.50;;;;;;4983748;28;20552;-88
2022/03/07 13:08:57;;;;;;;0.80;0.40;;;17.90;70.20;;;;;;4988346;28;20440;-85
2022/03/07 13:11:36;;;;;;;0.80;0.40;;;17.70;72.50;;;;;;4983148;28;20441;-87
2022/03/07 13:14:03;;;;;;;0.80;0.40;;;18.40;70.80;;;;;;4986142;28;20983;-87
2022/03/07 13:16:35;;;;;;;0.80;0.43;;;17.10;64.60;;;;;;4987304;28;20444;-88
2022/03/07 13:19:03;;;;;;;0.87;0.53;;;17.10;66.40;;;;;;4977495;28;20506;-88
2022/03/07 13:21:35;;;;;;;0.80;0.40;;;17.30;68.50;;;;;;4988774;28;20444;-89
2022/03/07 13:24:03;;;;;;;2.70;1.77;;;17.60;65.90;;;;;;4989170;28;20491;-87
2022/03/07 13:26:28;;;;;;;0.90;0.70;;;17.30;68.30;;;;;;4990988;28;20432;-88
2022/03/07 13:29:09;;;;;;;1.00;0.50;;;17.30;70.70;;;;;;4987489;28;20802;-87
2022/03/07 13:31:46;;;;;;;0.80;0.40;;;18.50;71.00;;;;;;4994178;28;20583;-87
2022/03/07 13:34:14;;;;;;;0.80;0.50;;;18.70;69.20;;;;;;4990922;28;20468;-85
2022/03/07 13:36:59;;;;;;;0.80;0.40;;;18.60;66.90;;;;;;4989530;28;20483;-86
2022/03/07 13:39:27;;;;;;;0.80;0.40;;;18.00;71.60;;;;;;4990682;28;20468;-85
2022/03/07 13:41:59;;;;;;;0.80;0.40;;;18.00;64.40;;;;;;4993345;28;20436;-85